KMYR/MYR METAR and TAF weather

Enter ICAO airport designator
Station Type Date Time Source
KMYR METAR 2019/04/22 19:56 UTC NOAA

KMYR 221956Z AUTO VRB03KT 10SM CLR 22/12 A3012 RMK AO2 SLP201 T02170122


Station Type Date Time Source
KMYR Decoded METAR 2019/04/22 19:56 UTC NOAA

Myrtle Beach Air Force Base, SC, United States (KMYR) 33-41N 078-56W 8M
Apr 22, 2019 - 03:56 PM EDT / 2019.04.22 1956 UTC
Wind: Variable at 3 MPH (3 KT):0
Visibility: 10 mile(s):0
Sky conditions: clear
Temperature: 71.1 F (21.7 C)
Dew Point: 54.0 F (12.2 C)
Relative Humidity: 54%
Pressure (altimeter): 30.12 in. Hg (1019 hPa)
ob: KMYR 221956Z AUTO VRB03KT 10SM CLR 22/12 A3012 RMK AO2 SLP201 T02170122
cycle: 20

Station Type Date Time Source
KMYR TAF 2019/04/22 18:27 UTC NOAA

TAF KMYR 221725Z 2218/2318 31007KT P6SM SKC
FM230000 21005KT P6SM SKC

Example: see airport list